createdAt,value
2022-10-26T00:00:52.056Z,20.00
2022-10-26T00:03:19.171Z,22.25
2022-10-26T00:05:46.102Z,20.75
2022-10-26T00:08:13.108Z,23.25
2022-10-26T00:10:40.027Z,21.75
2022-10-26T00:13:09.263Z,22.50
2022-10-26T00:15:36.186Z,20.25
2022-10-26T00:18:03.108Z,24.75
2022-10-26T00:20:30.083Z,18.75
2022-10-26T00:22:56.976Z,21.25
2022-10-26T00:25:24.089Z,23.75
2022-10-26T00:27:51.576Z,24.25
2022-10-26T00:30:18.749Z,20.25
2022-10-26T00:32:45.651Z,18.00
2022-10-26T00:35:22.865Z,21.50
2022-10-26T00:37:55.574Z,21.50
2022-10-26T00:40:23.171Z,22.00
2022-10-26T00:42:50.276Z,19.00
2022-10-26T00:45:22.050Z,22.00
2022-10-26T00:47:59.341Z,24.50
2022-10-26T00:50:46.914Z,20.25
2022-10-26T00:53:13.811Z,20.00
2022-10-26T00:55:47.693Z,20.50
2022-10-26T00:58:14.604Z,20.75
2022-10-26T01:00:42.226Z,22.00
2022-10-26T01:03:09.495Z,20.00
2022-10-26T01:05:41.769Z,19.75
2022-10-26T01:08:28.302Z,20.50
2022-10-26T01:11:11.478Z,20.00
2022-10-26T01:13:55.029Z,22.50
2022-10-26T01:16:54.948Z,20.50
2022-10-26T01:19:42.843Z,18.25
2022-10-26T01:22:42.545Z,21.00
2022-10-26T01:25:38.459Z,18.75
2022-10-26T01:28:13.217Z,21.00
2022-10-26T01:30:41.039Z,20.00
2022-10-26T01:33:11.036Z,21.00
2022-10-26T01:35:43.918Z,20.00
2022-10-26T01:38:18.716Z,21.25
2022-10-26T01:40:57.075Z,17.25
2022-10-26T01:43:24.072Z,22.25
2022-10-26T01:45:51.131Z,19.00
2022-10-26T01:48:19.032Z,19.00
2022-10-26T01:50:46.901Z,21.25
2022-10-26T01:53:16.713Z,20.00
2022-10-26T01:55:51.232Z,21.50
2022-10-26T01:58:45.899Z,18.75
2022-10-26T02:01:43.091Z,20.00
2022-10-26T02:07:09.643Z,18.00
2022-10-26T02:09:42.190Z,20.50
2022-10-26T02:12:46.182Z,20.25
2022-10-26T02:15:23.776Z,16.75
2022-10-26T02:18:19.216Z,16.75
2022-10-26T02:20:48.922Z,19.00
2022-10-26T02:23:15.900Z,20.00
2022-10-26T02:25:46.636Z,18.75
2022-10-26T02:28:20.087Z,19.00
2022-10-26T02:30:47.075Z,19.75
2022-10-26T02:33:14.176Z,17.75
2022-10-26T02:35:41.743Z,16.50
2022-10-26T02:38:10.798Z,18.50
2022-10-26T02:40:37.797Z,20.00
2022-10-26T02:43:11.400Z,19.50
2022-10-26T02:45:43.225Z,20.00
2022-10-26T02:48:10.120Z,20.25
2022-10-26T02:50:43.516Z,16.75
2022-10-26T02:53:30.581Z,16.00
2022-10-26T02:55:57.519Z,18.00
2022-10-26T02:58:29.456Z,19.25
2022-10-26T03:00:56.390Z,18.00
2022-10-26T03:03:23.342Z,19.25
2022-10-26T03:05:50.277Z,19.25
2022-10-26T03:08:17.813Z,15.50
2022-10-26T03:10:45.735Z,18.25
2022-10-26T03:13:13.246Z,18.00
2022-10-26T03:15:40.198Z,17.50
2022-10-26T03:18:07.236Z,18.75
2022-10-26T03:20:34.189Z,19.50
2022-10-26T03:23:01.211Z,17.00
2022-10-26T03:25:28.232Z,14.00
2022-10-26T03:28:01.737Z,17.00
2022-10-26T03:30:29.112Z,17.25
2022-10-26T03:32:56.005Z,12.50
2022-10-26T03:35:22.982Z,14.75
2022-10-26T03:37:50.367Z,14.50
2022-10-26T03:40:17.486Z,1.00
2022-10-26T03:42:44.453Z,16.75
2022-10-26T03:45:11.415Z,16.00
2022-10-26T03:47:45.699Z,18.50
2022-10-26T03:50:16.167Z,18.75
2022-10-26T03:52:43.120Z,17.00
2022-10-26T03:55:10.619Z,17.25
2022-10-26T03:57:41.974Z,15.00
2022-10-26T04:00:10.596Z,18.25
2022-10-26T04:02:37.528Z,15.75
2022-10-26T04:05:04.885Z,16.50
2022-10-26T04:07:31.844Z,19.00
2022-10-26T04:09:58.769Z,17.00
2022-10-26T04:12:25.926Z,15.00
2022-10-26T04:14:53.016Z,16.50
2022-10-26T04:17:20.054Z,16.75
2022-10-26T04:19:48.046Z,16.50
2022-10-26T04:22:15.064Z,16.75
2022-10-26T04:24:42.253Z,15.50
2022-10-26T04:27:09.150Z,15.75
2022-10-26T04:29:36.090Z,11.75
2022-10-26T04:32:03.143Z,17.25
2022-10-26T04:34:30.046Z,14.50
2022-10-26T04:36:56.988Z,15.00
2022-10-26T04:39:24.137Z,14.00
2022-10-26T04:41:51.057Z,14.75
2022-10-26T04:44:17.952Z,16.00
2022-10-26T04:46:44.922Z,15.50
2022-10-26T04:49:12.585Z,15.50
2022-10-26T04:51:39.525Z,15.00
2022-10-26T04:54:06.465Z,17.50
2022-10-26T04:56:34.386Z,14.25
2022-10-26T04:59:01.516Z,13.00
2022-10-26T05:01:28.541Z,14.00
2022-10-26T05:03:55.641Z,15.75
2022-10-26T05:06:22.747Z,15.50
2022-10-26T05:08:49.708Z,14.00
2022-10-26T05:11:16.806Z,15.25
2022-10-26T05:13:43.719Z,15.00
2022-10-26T05:16:10.646Z,14.00
2022-10-26T05:18:37.570Z,15.25
2022-10-26T05:21:04.572Z,15.75
2022-10-26T05:23:32.887Z,13.00
2022-10-26T05:25:59.967Z,13.00
2022-10-26T05:28:26.879Z,14.00
2022-10-26T05:30:53.804Z,14.50
2022-10-26T05:33:20.709Z,14.75
2022-10-26T05:35:47.878Z,14.00
2022-10-26T05:38:16.279Z,16.75
2022-10-26T05:40:53.536Z,11.25
2022-10-26T05:43:21.415Z,14.00
2022-10-26T05:45:49.853Z,15.50
2022-10-26T05:48:16.898Z,15.00
2022-10-26T05:50:43.788Z,13.50
2022-10-26T05:53:10.750Z,13.00
2022-10-26T05:55:38.049Z,15.00
2022-10-26T05:58:05.257Z,14.50
2022-10-26T06:00:32.514Z,15.75
2022-10-26T06:03:08.406Z,13.25
2022-10-26T06:05:39.379Z,14.50
2022-10-26T06:08:10.838Z,12.50
2022-10-26T06:10:39.234Z,14.50
2022-10-26T06:13:06.454Z,13.25
2022-10-26T06:15:34.046Z,13.00
2022-10-26T06:18:06.668Z,11.50
2022-10-26T06:20:44.828Z,12.50
2022-10-26T06:23:34.778Z,12.00
2022-10-26T06:26:03.268Z,12.50
2022-10-26T06:28:58.367Z,15.00
2022-10-26T06:31:25.270Z,14.25
2022-10-26T06:33:54.101Z,15.00
2022-10-26T06:36:25.457Z,14.75
2022-10-26T06:39:03.987Z,14.75
2022-10-26T06:41:34.882Z,14.75
2022-10-26T06:44:02.945Z,14.00
2022-10-26T06:46:37.892Z,9.00
2022-10-26T06:49:20.220Z,15.25
2022-10-26T06:52:33.346Z,14.00
2022-10-26T06:55:01.059Z,13.00
2022-10-26T06:57:34.521Z,14.75
2022-10-26T07:00:05.421Z,12.75
2022-10-26T07:02:32.520Z,8.50
2022-10-26T07:04:59.599Z,13.25
2022-10-26T07:07:27.912Z,14.25
2022-10-26T07:09:54.915Z,16.25
2022-10-26T07:13:21.671Z,15.75
2022-10-26T07:15:48.723Z,13.50
2022-10-26T07:18:15.655Z,14.75
2022-10-26T07:20:42.786Z,14.75
2022-10-26T07:23:13.012Z,14.25
2022-10-26T07:26:29.768Z,16.00
2022-10-26T07:28:56.688Z,13.50
2022-10-26T07:31:23.693Z,14.75
2022-10-26T07:33:50.619Z,14.00
2022-10-26T07:36:17.556Z,13.50
2022-10-26T07:38:44.466Z,13.00
2022-10-26T07:41:11.411Z,14.00
2022-10-26T07:43:38.320Z,15.00
2022-10-26T07:46:05.407Z,12.25
2022-10-26T07:48:32.345Z,14.00
2022-10-26T07:51:02.971Z,11.25
2022-10-26T07:53:30.300Z,12.50
2022-10-26T07:55:57.544Z,14.75
2022-10-26T07:58:26.375Z,13.75
2022-10-26T08:00:53.578Z,13.50
2022-10-26T08:03:20.889Z,13.75
2022-10-26T08:05:48.370Z,14.75
2022-10-26T08:08:15.293Z,15.50
2022-10-26T08:10:45.538Z,12.00
2022-10-26T08:13:12.681Z,14.75
2022-10-26T08:15:39.687Z,14.50
2022-10-26T08:18:06.778Z,13.75
2022-10-26T08:20:33.782Z,13.25
2022-10-26T08:23:01.564Z,15.00
2022-10-26T08:25:28.593Z,14.50
2022-10-26T08:27:55.639Z,14.00
2022-10-26T08:30:22.629Z,14.00
2022-10-26T08:32:49.919Z,14.00
2022-10-26T08:35:17.110Z,12.50
2022-10-26T08:37:44.060Z,10.00
2022-10-26T08:40:15.168Z,11.75
2022-10-26T08:42:44.689Z,15.25
2022-10-26T08:45:30.519Z,11.75
2022-10-26T08:48:02.059Z,11.00
2022-10-26T08:50:31.843Z,13.75
2022-10-26T08:53:04.108Z,13.00
2022-10-26T08:55:46.543Z,12.00
2022-10-26T08:58:17.982Z,11.50
2022-10-26T09:00:45.480Z,13.50
2022-10-26T09:03:16.369Z,13.25
2022-10-26T09:06:20.721Z,13.50
2022-10-26T09:09:04.144Z,13.50
2022-10-26T09:11:42.200Z,12.00
2022-10-26T09:14:21.127Z,15.00
2022-10-26T09:17:09.087Z,12.75
2022-10-26T09:19:51.366Z,13.75
2022-10-26T09:22:22.827Z,13.00
2022-10-26T09:24:54.025Z,14.00
2022-10-26T09:27:30.181Z,13.00
2022-10-26T09:29:58.243Z,12.75
2022-10-26T09:32:31.637Z,13.50
2022-10-26T09:35:00.745Z,11.25
2022-10-26T09:37:31.479Z,13.00
2022-10-26T09:40:18.684Z,11.75
2022-10-26T09:43:01.825Z,12.00
2022-10-26T09:45:31.848Z,12.25
2022-10-26T09:48:11.848Z,11.75
2022-10-26T09:50:40.008Z,11.75
2022-10-26T09:53:06.962Z,13.00
2022-10-26T09:55:34.323Z,14.50
2022-10-26T09:58:04.499Z,13.00
2022-10-26T10:00:31.731Z,12.25
2022-10-26T10:02:59.063Z,11.25
2022-10-26T10:05:49.653Z,11.75
2022-10-26T10:08:26.974Z,12.75
2022-10-26T10:11:11.489Z,12.50
2022-10-26T10:13:45.558Z,10.75
2022-10-26T10:16:25.378Z,11.50
2022-10-26T10:18:59.385Z,11.00
2022-10-26T10:21:39.882Z,11.25
2022-10-26T10:24:27.168Z,11.00
2022-10-26T10:27:03.973Z,11.00
2022-10-26T10:29:35.322Z,10.00
2022-10-26T10:32:03.312Z,10.25
2022-10-26T10:34:33.617Z,9.75
2022-10-26T10:37:00.975Z,11.00
2022-10-26T10:39:34.720Z,9.75
2022-10-26T10:42:02.391Z,10.00
2022-10-26T10:44:30.315Z,10.75
2022-10-26T10:47:03.863Z,10.00
2022-10-26T10:49:30.917Z,11.00
2022-10-26T10:51:58.032Z,10.00
2022-10-26T10:54:33.375Z,9.00
2022-10-26T10:57:07.745Z,10.50
2022-10-26T11:00:02.317Z,8.50
2022-10-26T11:02:49.246Z,11.00
2022-10-26T11:05:37.450Z,9.75
2022-10-26T11:08:22.706Z,10.50
2022-10-26T11:10:52.800Z,9.00
2022-10-26T11:13:25.483Z,9.00
2022-10-26T11:15:55.796Z,9.75
2022-10-26T11:18:57.014Z,10.00
2022-10-26T11:21:29.132Z,9.50
2022-10-26T11:24:11.255Z,10.33
2022-10-26T11:26:46.584Z,10.00
2022-10-26T11:29:39.491Z,9.33
2022-10-26T11:32:23.339Z,8.00
2022-10-26T11:35:00.304Z,9.00
2022-10-26T11:37:34.778Z,7.67
2022-10-26T11:40:27.679Z,9.75
2022-10-26T11:43:17.531Z,6.00
2022-10-26T11:46:13.867Z,9.00
2022-10-26T11:49:44.805Z,8.67
2022-10-26T11:52:40.757Z,9.00
2022-10-26T11:55:09.552Z,8.00
2022-10-26T11:57:36.953Z,7.33
2022-10-26T12:00:08.840Z,7.67
2022-10-26T12:05:16.593Z,7.67
2022-10-26T12:07:55.245Z,8.50
2022-10-26T12:10:33.337Z,9.00
2022-10-26T12:13:15.338Z,8.00
2022-10-26T12:16:02.915Z,8.00
2022-10-26T12:18:55.866Z,9.67
2022-10-26T12:21:25.594Z,8.00
2022-10-26T12:24:02.853Z,8.00
2022-10-26T12:26:29.705Z,7.00
2022-10-26T12:29:02.502Z,7.00
2022-10-26T12:31:38.403Z,8.00
2022-10-26T12:34:06.372Z,2.33
2022-10-26T12:36:57.904Z,8.33
2022-10-26T12:39:37.191Z,8.00
2022-10-26T12:42:09.948Z,7.00
2022-10-26T12:44:41.451Z,7.67
2022-10-26T12:47:09.371Z,6.00
2022-10-26T12:50:06.911Z,7.33
2022-10-26T12:52:52.713Z,6.00
2022-10-26T12:55:46.012Z,7.00
2022-10-26T12:58:36.008Z,8.00
2022-10-26T13:01:03.661Z,8.00
2022-10-26T13:03:33.342Z,7.00
2022-10-26T13:06:23.673Z,7.00
2022-10-26T13:08:56.232Z,6.67
2022-10-26T13:11:30.760Z,7.00
2022-10-26T13:13:59.128Z,8.00
2022-10-26T13:16:27.232Z,6.67
2022-10-26T13:18:54.167Z,7.67
2022-10-26T13:21:21.444Z,7.00
2022-10-26T13:24:01.907Z,7.00
2022-10-26T13:26:29.845Z,7.33
2022-10-26T13:29:01.427Z,6.00
2022-10-26T13:31:34.675Z,7.00
2022-10-26T13:34:21.445Z,6.00
2022-10-26T13:37:13.354Z,7.00
2022-10-26T13:39:42.385Z,6.00
2022-10-26T13:42:14.249Z,6.00
2022-10-26T13:45:07.053Z,7.00
2022-10-26T13:47:43.905Z,7.00
2022-10-26T13:50:20.999Z,6.33
2022-10-26T13:52:50.000Z,6.00
2022-10-26T13:55:40.108Z,6.67
2022-10-26T13:58:43.280Z,6.00
2022-10-26T14:01:10.559Z,6.67
2022-10-26T14:03:37.812Z,6.00
2022-10-26T14:06:34.836Z,6.00
2022-10-26T14:09:15.055Z,7.33
2022-10-26T14:11:52.470Z,6.67
2022-10-26T14:14:21.811Z,5.00
2022-10-26T14:16:49.699Z,6.33
2022-10-26T14:19:19.081Z,6.00
2022-10-26T14:21:50.202Z,6.33
2022-10-26T14:24:53.079Z,6.00
2022-10-26T14:27:22.559Z,6.00
2022-10-26T14:30:10.152Z,5.00
2022-10-26T14:32:37.914Z,6.00
2022-10-26T14:35:05.120Z,2.00
2022-10-26T14:37:34.744Z,6.33
2022-10-26T14:40:01.676Z,6.00
2022-10-26T14:42:33.279Z,5.67
2022-10-26T14:45:00.254Z,6.33
2022-10-26T14:47:31.527Z,5.33
2022-10-26T14:52:31.161Z,7.00
2022-10-26T14:55:05.686Z,6.00
2022-10-26T14:57:36.583Z,5.00
2022-10-26T15:00:15.714Z,6.00
2022-10-26T15:05:35.776Z,5.00
2022-10-26T15:08:03.533Z,5.67
2022-10-26T15:10:36.479Z,5.67
2022-10-26T15:13:18.245Z,5.00
2022-10-26T15:15:48.556Z,6.67
2022-10-26T15:18:28.945Z,0.00
2022-10-26T15:20:56.403Z,5.67
2022-10-26T15:23:24.063Z,4.33
2022-10-26T15:25:59.079Z,5.00
2022-10-26T15:28:33.030Z,4.00
2022-10-26T15:31:03.610Z,4.67
2022-10-26T15:33:30.759Z,5.67
2022-10-26T15:36:19.934Z,5.33
2022-10-26T15:38:48.329Z,4.00
2022-10-26T15:41:18.754Z,5.00
2022-10-26T15:43:49.089Z,5.67
2022-10-26T15:46:16.046Z,5.00
2022-10-26T15:48:43.059Z,6.00
2022-10-26T15:51:18.932Z,6.00
2022-10-26T15:53:45.872Z,5.33
2022-10-26T15:56:19.978Z,6.00
2022-10-26T15:58:47.240Z,6.00
2022-10-26T16:01:18.664Z,7.00
2022-10-26T16:03:45.945Z,7.67
2022-10-26T16:06:18.270Z,17.50
2022-10-26T16:08:50.673Z,23.00
2022-10-26T16:43:52.781Z,27.50
2022-10-26T16:46:20.947Z,27.00
2022-10-26T16:48:48.804Z,14.00
2022-10-26T16:51:29.339Z,7.00
2022-10-26T16:53:56.824Z,4.67
2022-10-26T16:56:28.181Z,4.33
2022-10-26T16:58:55.343Z,3.00
2022-10-26T17:01:22.414Z,3.00
2022-10-26T17:03:50.455Z,4.00
2022-10-26T17:06:17.587Z,6.00
2022-10-26T17:08:44.489Z,5.00
2022-10-26T17:11:16.305Z,6.00
2022-10-26T17:13:43.272Z,8.00
2022-10-26T17:16:15.476Z,7.67
2022-10-26T17:18:42.679Z,6.33
2022-10-26T17:21:10.341Z,8.00
2022-10-26T17:23:37.444Z,7.33
2022-10-26T17:26:05.639Z,8.00
2022-10-26T17:28:32.820Z,9.00
2022-10-26T17:31:09.817Z,7.00
2022-10-26T17:33:37.412Z,7.67
2022-10-26T17:36:05.351Z,8.00
2022-10-26T17:38:33.269Z,8.00
2022-10-26T17:41:03.698Z,7.67
2022-10-26T17:43:31.812Z,7.00
2022-10-26T17:46:02.122Z,8.33
2022-10-26T17:48:29.702Z,8.00
2022-10-26T17:51:01.414Z,6.00
2022-10-26T17:53:28.544Z,9.00
2022-10-26T17:56:02.954Z,6.00
2022-10-26T17:58:29.892Z,8.67
2022-10-26T18:01:00.104Z,9.00
2022-10-26T18:03:27.037Z,8.00
2022-10-26T18:05:53.995Z,8.00
2022-10-26T18:08:21.101Z,8.00
2022-10-26T18:10:48.856Z,7.00
2022-10-26T18:13:15.921Z,5.00
2022-10-26T18:15:42.825Z,6.00
2022-10-26T18:18:09.802Z,8.00
2022-10-26T18:20:36.743Z,8.00
2022-10-26T18:23:03.749Z,7.00
2022-10-26T18:25:31.594Z,7.67
2022-10-26T18:27:58.559Z,6.67
2022-10-26T18:30:25.663Z,8.00
2022-10-26T18:32:53.375Z,6.00
2022-10-26T18:35:20.579Z,6.00
2022-10-26T18:37:47.839Z,7.00
2022-10-26T18:40:15.173Z,6.00
2022-10-26T18:42:42.489Z,9.00
2022-10-26T18:45:09.943Z,8.33
2022-10-26T18:47:36.887Z,7.00
2022-10-26T18:50:04.823Z,8.67
2022-10-26T18:52:31.811Z,8.33
2022-10-26T18:54:58.713Z,5.00
2022-10-26T18:57:27.217Z,7.00
2022-10-26T18:59:55.094Z,6.00
2022-10-26T19:02:23.239Z,5.00
2022-10-26T19:04:51.815Z,6.33
2022-10-26T19:07:18.713Z,7.00
2022-10-26T19:09:45.706Z,6.33
2022-10-26T19:12:12.604Z,7.33
2022-10-26T19:14:39.576Z,8.00
2022-10-26T19:17:06.579Z,6.00
2022-10-26T19:19:33.522Z,8.00
2022-10-26T19:22:01.242Z,7.67
2022-10-26T19:24:28.282Z,8.67
2022-10-26T19:26:56.762Z,8.00
2022-10-26T19:29:23.726Z,6.33
2022-10-26T19:31:52.246Z,8.00
2022-10-26T19:34:19.440Z,7.00
2022-10-26T19:36:47.408Z,9.00
2022-10-26T19:39:15.662Z,7.67
2022-10-26T19:41:42.979Z,7.67
2022-10-26T19:44:10.719Z,6.67
2022-10-26T19:46:38.298Z,7.00
2022-10-26T19:49:05.407Z,9.00
2022-10-26T19:51:32.600Z,7.33
2022-10-26T19:54:03.550Z,7.00
2022-10-26T19:56:32.213Z,7.33
2022-10-26T19:58:59.146Z,7.00
2022-10-26T20:01:26.158Z,7.67
2022-10-26T20:03:53.145Z,7.00
2022-10-26T20:06:20.171Z,8.00
2022-10-26T20:08:48.100Z,8.33
2022-10-26T20:11:16.438Z,6.00
2022-10-26T20:13:43.880Z,7.33
2022-10-26T20:16:11.074Z,6.00
2022-10-26T20:18:41.177Z,6.00
2022-10-26T20:21:11.551Z,6.67
2022-10-26T20:23:38.556Z,7.33
2022-10-26T20:28:33.518Z,8.00
2022-10-26T20:31:00.458Z,7.00
2022-10-26T20:33:27.711Z,7.00
2022-10-26T20:36:01.028Z,7.33
2022-10-26T20:38:28.305Z,7.00
2022-10-26T20:40:57.096Z,8.33
2022-10-26T20:43:24.959Z,7.00
2022-10-26T20:45:52.298Z,7.00
2022-10-26T20:48:19.495Z,7.67
2022-10-26T20:50:50.243Z,6.00
2022-10-26T20:53:28.778Z,7.00
2022-10-26T20:55:57.509Z,7.67
2022-10-26T20:58:32.963Z,5.33
2022-10-26T21:01:01.132Z,7.00
2022-10-26T21:03:28.151Z,6.00
2022-10-26T21:05:55.082Z,7.00
2022-10-26T21:08:22.344Z,6.67
2022-10-26T21:10:52.489Z,6.00
2022-10-26T21:13:19.453Z,8.00
2022-10-26T21:15:46.383Z,6.00
2022-10-26T21:18:13.370Z,7.00
2022-10-26T21:20:40.321Z,6.00
2022-10-26T21:23:07.231Z,6.00
2022-10-26T21:25:36.699Z,6.33
2022-10-26T21:28:04.005Z,5.00
2022-10-26T21:30:30.898Z,3.00
2022-10-26T21:35:29.646Z,6.00
2022-10-26T21:37:56.917Z,6.00
2022-10-26T21:40:23.969Z,5.00
2022-10-26T21:42:51.833Z,5.00
2022-10-26T21:45:19.100Z,5.00
2022-10-26T21:47:46.114Z,5.00
2022-10-26T21:50:12.993Z,6.00
2022-10-26T21:52:39.958Z,6.00
2022-10-26T21:55:07.112Z,6.00
2022-10-26T21:57:34.602Z,7.00
2022-10-26T22:00:01.559Z,5.00
2022-10-26T22:02:28.533Z,6.00
2022-10-26T22:04:55.550Z,5.00
2022-10-26T22:07:22.506Z,5.00
2022-10-26T22:10:07.657Z,4.00
2022-10-26T22:12:36.359Z,5.00
2022-10-26T22:15:03.328Z,6.33
2022-10-26T22:17:30.222Z,5.00
2022-10-26T22:19:57.103Z,4.00
2022-10-26T22:22:24.028Z,4.00
2022-10-26T22:24:50.991Z,4.00
2022-10-26T22:27:17.885Z,5.00
2022-10-26T22:29:44.839Z,5.00
2022-10-26T22:32:11.737Z,5.00
2022-10-26T22:34:38.681Z,4.33
2022-10-26T22:37:05.625Z,5.00
2022-10-26T22:39:32.643Z,5.00
2022-10-26T22:41:59.581Z,4.00
2022-10-26T22:44:26.524Z,4.00
2022-10-26T22:46:53.456Z,4.00
2022-10-26T22:49:20.397Z,4.00
2022-10-26T22:51:47.354Z,5.00
2022-10-26T22:54:14.421Z,5.00
2022-10-26T22:56:41.389Z,5.00
2022-10-26T22:59:08.399Z,6.00
2022-10-26T23:01:39.350Z,4.33
2022-10-26T23:04:06.344Z,5.00
2022-10-26T23:06:33.474Z,4.00
2022-10-26T23:09:00.355Z,3.33
2022-10-26T23:11:28.257Z,4.00
2022-10-26T23:13:56.008Z,4.00
2022-10-26T23:16:23.390Z,3.00
2022-10-26T23:18:50.463Z,3.67
2022-10-26T23:21:17.649Z,4.33
2022-10-26T23:23:44.952Z,3.33
2022-10-26T23:26:23.618Z,3.33
2022-10-26T23:28:50.649Z,3.33
2022-10-26T23:31:25.865Z,3.67
2022-10-26T23:33:53.713Z,3.67
2022-10-26T23:36:20.718Z,3.33
2022-10-26T23:38:48.032Z,4.33
2022-10-26T23:41:14.989Z,3.33
2022-10-26T23:43:42.014Z,4.00
2022-10-26T23:46:09.037Z,4.00
2022-10-26T23:48:36.032Z,4.00
2022-10-26T23:51:03.001Z,4.00
2022-10-26T23:53:29.990Z,3.00
2022-10-26T23:55:56.890Z,3.00
2022-10-26T23:58:23.845Z,3.67
